createdAt,value
2023-01-17T00:02:36.105Z,59.58
2023-01-17T00:07:56.725Z,60.01
2023-01-17T00:13:03.767Z,59.72
2023-01-17T00:18:06.259Z,59.82
2023-01-17T00:23:32.697Z,60.09
2023-01-17T00:28:40.091Z,60.05
2023-01-17T00:33:42.413Z,61.07
2023-01-17T00:38:44.411Z,60.66
2023-01-17T00:44:04.993Z,60.18
2023-01-17T00:49:26.360Z,60.88
2023-01-17T00:54:46.950Z,60.64
2023-01-17T01:00:07.767Z,60.40
2023-01-17T01:05:29.638Z,60.55
2023-01-17T01:10:51.334Z,60.36
2023-01-17T01:16:12.168Z,60.38
2023-01-17T01:21:32.917Z,60.86
2023-01-17T01:26:53.538Z,60.85
2023-01-17T01:32:13.849Z,60.89
2023-01-17T01:37:15.965Z,61.58
2023-01-17T01:42:18.360Z,60.94
2023-01-17T01:47:29.346Z,60.61
2023-01-17T01:52:33.989Z,61.21
2023-01-17T01:57:42.705Z,61.31
2023-01-17T02:02:47.887Z,61.72
2023-01-17T02:08:17.624Z,61.34
2023-01-17T02:13:21.507Z,61.42
2023-01-17T02:19:00.434Z,61.16
2023-01-17T02:24:40.061Z,61.50
2023-01-17T02:30:11.208Z,61.51
2023-01-17T02:35:16.550Z,62.55
2023-01-17T02:40:26.931Z,61.94
2023-01-17T02:45:29.530Z,61.79
2023-01-17T02:50:56.058Z,61.23
2023-01-17T02:56:08.704Z,61.46
2023-01-17T03:01:38.437Z,61.54
2023-01-17T03:06:47.555Z,61.38
2023-01-17T03:11:49.899Z,61.47
2023-01-17T03:16:52.307Z,61.56
2023-01-17T03:21:54.417Z,61.55
2023-01-17T03:26:56.644Z,61.89
2023-01-17T03:31:58.842Z,61.69
2023-01-17T03:37:00.916Z,61.89
2023-01-17T03:42:02.967Z,62.51
2023-01-17T03:47:05.072Z,62.21
2023-01-17T03:52:07.938Z,62.33
2023-01-17T03:57:10.148Z,61.82
2023-01-17T04:02:12.355Z,62.10
2023-01-17T04:07:14.574Z,61.50
2023-01-17T04:12:16.740Z,61.83
2023-01-17T04:17:20.530Z,61.80
2023-01-17T04:22:22.798Z,61.56
2023-01-17T04:27:24.935Z,61.77
2023-01-17T04:32:27.019Z,62.44
2023-01-17T04:37:29.068Z,62.48
2023-01-17T04:42:31.217Z,62.59
2023-01-17T04:47:36.191Z,61.89
2023-01-17T04:52:38.400Z,62.50
2023-01-17T04:57:40.455Z,62.68
2023-01-17T05:02:42.593Z,64.95
2023-01-17T05:07:44.822Z,64.63
2023-01-17T05:12:54.463Z,63.33
2023-01-17T05:17:56.759Z,63.03
2023-01-17T05:22:59.113Z,62.64
2023-01-17T05:28:01.808Z,62.91
2023-01-17T05:33:04.060Z,62.53
2023-01-17T05:38:06.245Z,64.77
2023-01-17T05:43:09.005Z,63.92
2023-01-17T05:48:11.157Z,62.93
2023-01-17T05:53:16.293Z,62.86
2023-01-17T05:58:21.567Z,62.86
2023-01-17T06:03:23.712Z,62.57
2023-01-17T06:08:25.807Z,61.97
2023-01-17T06:13:27.902Z,62.23
2023-01-17T06:18:31.233Z,62.70
2023-01-17T06:23:33.547Z,62.87
2023-01-17T06:28:36.023Z,62.24
2023-01-17T06:33:38.279Z,62.64
2023-01-17T06:38:40.343Z,63.75
2023-01-17T06:43:42.461Z,63.01
2023-01-17T06:48:44.718Z,63.06
2023-01-17T06:53:48.603Z,62.87
2023-01-17T06:58:51.906Z,63.03
2023-01-17T07:03:54.683Z,62.30
2023-01-17T07:08:57.062Z,63.89
2023-01-17T07:13:59.168Z,62.53
2023-01-17T07:19:01.256Z,63.06
2023-01-17T07:24:03.577Z,62.41
2023-01-17T07:29:06.110Z,62.63
2023-01-17T07:34:08.529Z,62.58
2023-01-17T07:39:10.740Z,63.80
2023-01-17T07:44:13.673Z,63.61
2023-01-17T07:49:15.827Z,63.70
2023-01-17T07:54:17.891Z,63.17
2023-01-17T07:59:20.116Z,63.40
2023-01-17T08:04:25.639Z,63.26
2023-01-17T08:09:28.063Z,62.79
2023-01-17T08:14:30.576Z,61.58
2023-01-17T08:19:32.753Z,61.43
2023-01-17T08:24:35.264Z,60.73
2023-01-17T08:29:37.544Z,60.56
2023-01-17T08:34:39.659Z,60.09
2023-01-17T08:39:41.763Z,60.38
2023-01-17T08:44:44.425Z,60.09
2023-01-17T08:49:46.684Z,59.78
2023-01-17T08:54:48.807Z,59.78
2023-01-17T08:59:50.927Z,59.82
2023-01-17T09:04:53.960Z,58.97
2023-01-17T09:09:56.098Z,58.60
2023-01-17T09:14:58.286Z,58.52
2023-01-17T09:20:00.559Z,58.05
2023-01-17T09:25:02.672Z,57.91
2023-01-17T09:30:05.589Z,57.76
2023-01-17T09:35:09.130Z,57.27
2023-01-17T09:40:23.218Z,56.72
2023-01-17T09:45:28.051Z,56.75
2023-01-17T09:50:33.204Z,57.95
2023-01-17T09:55:40.876Z,58.54
2023-01-17T10:00:51.563Z,58.11
2023-01-17T10:06:11.681Z,57.75
2023-01-17T10:11:39.181Z,58.16
2023-01-17T10:16:50.208Z,58.12
2023-01-17T10:22:02.662Z,58.23
2023-01-17T10:27:26.383Z,57.83
2023-01-17T10:32:32.988Z,57.52
2023-01-17T10:37:44.400Z,57.64
2023-01-17T10:42:54.495Z,57.79
2023-01-17T10:48:35.121Z,57.26
2023-01-17T10:53:57.350Z,57.58
2023-01-17T10:59:38.489Z,57.70
2023-01-17T11:04:45.339Z,58.13
2023-01-17T11:09:53.666Z,58.34
2023-01-17T11:20:43.549Z,59.12
2023-01-17T11:25:58.201Z,59.39
2023-01-17T11:31:24.289Z,59.40
2023-01-17T11:36:30.367Z,59.71
2023-01-17T11:41:35.247Z,59.96
2023-01-17T11:46:38.478Z,59.54
2023-01-17T11:51:43.611Z,59.24
2023-01-17T11:56:46.724Z,59.11
2023-01-17T12:02:16.559Z,58.32
2023-01-17T12:07:46.525Z,57.68
2023-01-17T12:13:19.159Z,57.48
2023-01-17T12:18:37.256Z,56.99
2023-01-17T12:24:02.610Z,56.83
2023-01-17T12:29:07.625Z,56.90
2023-01-17T12:34:24.886Z,56.95
2023-01-17T12:39:36.548Z,57.63
2023-01-17T12:45:06.163Z,57.71
2023-01-17T12:50:38.683Z,57.29
2023-01-17T12:55:46.710Z,56.69
2023-01-17T13:00:58.098Z,56.03
2023-01-17T13:06:03.157Z,54.90
2023-01-17T13:11:18.498Z,54.31
2023-01-17T13:16:30.705Z,53.45
2023-01-17T13:21:35.690Z,52.00
2023-01-17T13:26:50.007Z,50.82
2023-01-17T13:32:15.216Z,50.10
2023-01-17T13:37:19.868Z,50.73
2023-01-17T13:42:45.213Z,49.99
2023-01-17T13:47:47.447Z,49.71
2023-01-17T13:52:49.585Z,49.48
2023-01-17T13:57:51.713Z,49.24
2023-01-17T14:02:55.622Z,48.80
2023-01-17T14:08:12.759Z,48.17
2023-01-17T14:13:37.809Z,47.41
2023-01-17T14:18:43.389Z,47.80
2023-01-17T14:23:50.155Z,47.86
2023-01-17T14:28:53.140Z,47.69
2023-01-17T14:33:55.299Z,48.48
2023-01-17T14:38:57.535Z,48.43
2023-01-17T14:44:01.341Z,46.31
2023-01-17T14:49:06.590Z,46.33
2023-01-17T14:54:22.790Z,45.80
2023-01-17T14:59:25.111Z,46.27
2023-01-17T15:04:40.034Z,46.41
2023-01-17T15:09:45.017Z,46.71
2023-01-17T15:14:47.233Z,47.11
2023-01-17T15:19:54.284Z,47.28
2023-01-17T15:24:57.622Z,46.77
2023-01-17T15:30:02.735Z,47.97
2023-01-17T15:35:08.318Z,47.71
2023-01-17T15:40:20.624Z,48.28
2023-01-17T15:45:33.230Z,48.92
2023-01-17T15:50:36.864Z,48.58
2023-01-17T15:55:40.405Z,48.81
2023-01-17T16:00:44.548Z,49.01
2023-01-17T16:05:47.419Z,48.96
2023-01-17T16:10:55.468Z,49.48
2023-01-17T16:16:32.814Z,49.80
2023-01-17T16:21:35.089Z,50.59
2023-01-17T16:26:37.293Z,51.14
2023-01-17T16:31:39.564Z,51.69
2023-01-17T16:36:41.883Z,50.94
2023-01-17T16:41:44.859Z,50.22
2023-01-17T16:46:47.435Z,50.43
2023-01-17T16:51:50.366Z,50.50
2023-01-17T16:56:53.031Z,50.00
2023-01-17T17:01:55.242Z,48.95
2023-01-17T17:06:57.351Z,48.86
2023-01-17T17:11:59.464Z,47.70
2023-01-17T17:17:01.790Z,47.62
2023-01-17T17:22:06.875Z,47.43
2023-01-17T17:27:09.133Z,46.93
2023-01-17T17:32:11.917Z,46.55
2023-01-17T17:37:16.341Z,45.64
2023-01-17T17:42:20.406Z,45.59
2023-01-17T17:47:24.304Z,46.52
2023-01-17T17:52:26.474Z,46.94
2023-01-17T17:57:28.612Z,47.66
2023-01-17T18:02:31.840Z,47.65
2023-01-17T18:07:34.530Z,47.01
2023-01-17T18:12:36.674Z,47.82
2023-01-17T18:17:38.910Z,47.80
2023-01-17T18:22:42.264Z,47.60
2023-01-17T18:27:45.299Z,47.05
2023-01-17T18:32:50.240Z,47.19
2023-01-17T18:37:52.589Z,47.53
2023-01-17T18:42:55.129Z,48.27
2023-01-17T18:47:57.815Z,48.30
2023-01-17T18:53:00.206Z,48.10
2023-01-17T18:58:02.695Z,47.63
2023-01-17T19:03:06.847Z,47.74
2023-01-17T19:08:10.329Z,47.78
2023-01-17T19:13:12.950Z,48.22
2023-01-17T19:18:15.024Z,48.37
2023-01-17T19:23:17.611Z,49.21
2023-01-17T19:28:19.815Z,48.60
2023-01-17T19:33:22.134Z,48.72
2023-01-17T19:38:24.235Z,49.43
2023-01-17T19:43:26.400Z,49.55
2023-01-17T19:48:28.961Z,49.97
2023-01-17T19:53:31.066Z,49.63
2023-01-17T19:58:34.024Z,50.03
2023-01-17T20:03:38.059Z,50.02
2023-01-17T20:08:40.928Z,49.46
2023-01-17T20:13:43.071Z,49.37
2023-01-17T20:18:45.982Z,49.09
2023-01-17T20:23:50.365Z,49.04
2023-01-17T20:28:53.591Z,49.03
2023-01-17T20:33:56.659Z,48.76
2023-01-17T20:38:59.423Z,48.96
2023-01-17T20:44:02.802Z,48.43
2023-01-17T20:49:07.965Z,48.23
2023-01-17T20:54:14.817Z,47.45
2023-01-17T20:59:19.905Z,46.14
2023-01-17T21:04:26.180Z,46.13
2023-01-17T21:09:28.521Z,46.66
2023-01-17T21:14:30.857Z,47.41
2023-01-17T21:19:32.953Z,48.41
2023-01-17T21:24:35.050Z,48.76
2023-01-17T21:29:37.191Z,48.31
2023-01-17T21:34:39.275Z,47.84
2023-01-17T21:39:41.452Z,47.51
2023-01-17T21:44:45.632Z,47.18
2023-01-17T21:49:48.412Z,47.36
2023-01-17T21:55:09.070Z,47.94
2023-01-17T22:00:16.953Z,48.33
2023-01-17T22:05:19.153Z,48.55
2023-01-17T22:10:21.391Z,47.96
2023-01-17T22:15:23.831Z,47.45
2023-01-17T22:20:26.092Z,47.33
2023-01-17T22:25:28.451Z,48.07
2023-01-17T22:30:30.697Z,49.11
2023-01-17T22:35:32.977Z,49.91
2023-01-17T22:40:38.596Z,50.90
2023-01-17T22:45:40.861Z,50.97
2023-01-17T22:50:43.356Z,50.66
2023-01-17T22:55:45.527Z,52.04
2023-01-17T23:00:47.688Z,51.39
2023-01-17T23:05:49.771Z,51.67
2023-01-17T23:11:10.289Z,52.57
2023-01-17T23:16:30.922Z,52.92
2023-01-17T23:21:52.887Z,53.18
2023-01-17T23:27:13.355Z,53.10
2023-01-17T23:32:15.479Z,52.87
2023-01-17T23:37:17.667Z,52.98
2023-01-17T23:42:38.375Z,52.49
2023-01-17T23:47:40.483Z,52.49
2023-01-17T23:52:42.548Z,51.79
2023-01-17T23:57:45.042Z,50.56
